createdAt,value
2023-10-26T00:00:40.718Z,67.32
2023-10-26T00:03:07.510Z,67.54
2023-10-26T00:05:34.323Z,67.06
2023-10-26T00:08:01.024Z,67.06
2023-10-26T00:10:27.728Z,66.57
2023-10-26T00:12:54.427Z,67.36
2023-10-26T00:15:21.145Z,67.31
2023-10-26T00:17:47.914Z,66.95
2023-10-26T00:20:14.670Z,66.63
2023-10-26T00:22:41.329Z,66.36
2023-10-26T00:25:08.664Z,67.29
2023-10-26T00:27:41.636Z,67.47
2023-10-26T00:30:12.432Z,66.91
2023-10-26T00:32:40.792Z,66.66
2023-10-26T00:35:08.027Z,67.42
2023-10-26T00:37:35.270Z,66.65
2023-10-26T00:40:02.051Z,67.16
2023-10-26T00:42:28.794Z,66.52
2023-10-26T00:44:58.094Z,67.93
2023-10-26T00:47:27.098Z,67.33
2023-10-26T00:49:55.098Z,67.42
2023-10-26T00:52:24.200Z,67.40
2023-10-26T00:54:53.765Z,67.22
2023-10-26T00:57:24.089Z,67.11
2023-10-26T00:59:52.147Z,67.87
2023-10-26T01:02:20.165Z,68.23
2023-10-26T01:04:47.261Z,67.65
2023-10-26T01:07:16.652Z,67.48
2023-10-26T01:09:43.697Z,67.71
2023-10-26T01:12:11.090Z,67.23
2023-10-26T01:14:38.086Z,67.97
2023-10-26T01:17:04.905Z,67.83
2023-10-26T01:19:43.209Z,68.38
2023-10-26T01:22:10.940Z,68.25
2023-10-26T01:24:37.957Z,68.78
2023-10-26T01:27:05.756Z,68.00
2023-10-26T01:29:33.000Z,67.56
2023-10-26T01:32:00.280Z,67.87
2023-10-26T01:34:27.160Z,68.12
2023-10-26T01:36:53.942Z,68.63
2023-10-26T01:39:20.814Z,69.39
2023-10-26T01:41:48.273Z,69.11
2023-10-26T01:44:15.127Z,68.56
2023-10-26T01:46:41.822Z,68.59
2023-10-26T01:49:08.591Z,68.41
2023-10-26T01:51:36.008Z,69.32
2023-10-26T01:54:03.041Z,68.88
2023-10-26T01:56:31.016Z,69.75
2023-10-26T01:58:58.478Z,69.76
2023-10-26T02:01:25.653Z,69.26
2023-10-26T02:03:53.206Z,69.76
2023-10-26T02:06:20.065Z,70.33
2023-10-26T02:08:46.910Z,70.22
2023-10-26T02:11:14.044Z,70.38
2023-10-26T02:13:41.381Z,69.89
2023-10-26T02:16:08.488Z,70.23
2023-10-26T02:18:36.935Z,70.28
2023-10-26T02:21:03.992Z,70.32
2023-10-26T02:23:30.740Z,70.21
2023-10-26T02:25:57.670Z,70.78
2023-10-26T02:28:24.597Z,71.37
2023-10-26T02:30:51.328Z,71.14
2023-10-26T02:33:18.054Z,70.63
2023-10-26T02:35:44.866Z,70.72
2023-10-26T02:38:12.142Z,70.85
2023-10-26T02:40:39.455Z,71.94
2023-10-26T02:43:06.341Z,72.10
2023-10-26T02:45:33.149Z,72.10
2023-10-26T02:48:00.377Z,71.33
2023-10-26T02:50:28.628Z,71.56
2023-10-26T02:52:55.498Z,71.04
2023-10-26T02:55:22.398Z,72.22
2023-10-26T02:57:49.469Z,71.57
2023-10-26T03:00:17.630Z,71.40
2023-10-26T03:02:44.816Z,71.53
2023-10-26T03:05:11.674Z,71.36
2023-10-26T03:07:38.305Z,71.51
2023-10-26T03:10:06.571Z,71.81
2023-10-26T03:12:33.413Z,71.13
2023-10-26T03:15:01.287Z,72.07
2023-10-26T03:17:28.234Z,71.64
2023-10-26T03:19:55.043Z,71.26
2023-10-26T03:22:21.956Z,71.71
2023-10-26T03:24:50.780Z,72.02
2023-10-26T03:27:17.787Z,71.64
2023-10-26T03:29:45.688Z,71.76
2023-10-26T03:32:12.501Z,71.52
2023-10-26T03:34:39.831Z,71.86
2023-10-26T03:37:06.615Z,71.78
2023-10-26T03:39:34.706Z,71.89
2023-10-26T03:42:01.688Z,72.41
2023-10-26T03:44:29.470Z,71.93
2023-10-26T03:46:56.349Z,72.11
2023-10-26T03:49:23.145Z,71.79
2023-10-26T03:51:50.141Z,72.03
2023-10-26T03:54:16.974Z,72.38
2023-10-26T03:56:43.826Z,72.33
2023-10-26T03:59:10.566Z,72.01
2023-10-26T04:01:37.316Z,72.66
2023-10-26T04:04:04.929Z,72.60
2023-10-26T04:06:31.625Z,72.79
2023-10-26T04:08:58.555Z,72.08
2023-10-26T04:11:25.787Z,72.77
2023-10-26T04:13:55.116Z,72.80
2023-10-26T04:16:22.515Z,73.29
2023-10-26T04:18:49.291Z,72.30
2023-10-26T04:21:16.058Z,72.06
2023-10-26T04:23:42.773Z,73.05
2023-10-26T04:26:14.530Z,72.69
2023-10-26T04:28:51.393Z,73.18
2023-10-26T04:31:19.181Z,73.06
2023-10-26T04:33:46.126Z,72.84
2023-10-26T04:36:13.087Z,73.46
2023-10-26T04:38:40.300Z,72.67
2023-10-26T04:41:07.065Z,72.84
2023-10-26T04:43:33.862Z,73.16
2023-10-26T04:46:00.739Z,72.82
2023-10-26T04:48:27.477Z,72.99
2023-10-26T04:50:54.196Z,73.36
2023-10-26T04:53:20.892Z,72.83
2023-10-26T04:55:47.554Z,73.43
2023-10-26T04:58:15.832Z,73.17
2023-10-26T05:00:42.660Z,73.36
2023-10-26T05:03:09.392Z,73.93
2023-10-26T05:05:36.314Z,73.60
2023-10-26T05:08:05.126Z,73.39
2023-10-26T05:10:31.957Z,73.37
2023-10-26T05:12:58.711Z,74.29
2023-10-26T05:15:25.573Z,74.02
2023-10-26T05:17:52.378Z,73.89
2023-10-26T05:20:19.317Z,74.12
2023-10-26T05:22:46.039Z,73.70
2023-10-26T05:25:14.926Z,74.96
2023-10-26T05:27:42.003Z,74.36
2023-10-26T05:30:09.184Z,75.07
2023-10-26T05:32:36.001Z,74.80
2023-10-26T05:35:02.794Z,74.17
2023-10-26T05:37:29.486Z,74.55
2023-10-26T05:39:56.200Z,74.57
2023-10-26T05:42:23.008Z,74.83
2023-10-26T05:44:49.805Z,74.89
2023-10-26T05:47:21.776Z,75.52
2023-10-26T05:49:48.925Z,75.12
2023-10-26T05:52:16.009Z,75.44
2023-10-26T05:54:43.355Z,75.44
2023-10-26T05:57:10.417Z,75.16
2023-10-26T05:59:37.141Z,75.35
2023-10-26T06:02:03.941Z,75.03
2023-10-26T06:04:30.776Z,75.49
2023-10-26T06:06:57.425Z,75.64
2023-10-26T06:09:25.455Z,75.52
2023-10-26T06:11:53.217Z,75.58
2023-10-26T06:14:21.557Z,76.00
2023-10-26T06:16:49.010Z,75.62
2023-10-26T06:19:15.708Z,76.29
2023-10-26T06:21:42.558Z,75.83
2023-10-26T06:24:09.479Z,75.73
2023-10-26T06:26:36.267Z,76.03
2023-10-26T06:29:03.295Z,75.61
2023-10-26T06:31:30.063Z,75.53
2023-10-26T06:33:56.769Z,76.38
2023-10-26T06:36:23.491Z,75.60
2023-10-26T06:38:55.555Z,76.20
2023-10-26T06:41:22.407Z,76.29
2023-10-26T06:43:49.069Z,75.50
2023-10-26T06:46:16.014Z,75.54
2023-10-26T06:48:42.727Z,75.69
2023-10-26T06:51:09.534Z,75.55
2023-10-26T06:53:36.412Z,75.78
2023-10-26T06:56:03.422Z,75.24
2023-10-26T06:58:30.144Z,75.89
2023-10-26T07:00:56.870Z,75.64
2023-10-26T07:03:42.820Z,76.14
2023-10-26T07:06:13.724Z,75.56
2023-10-26T07:08:40.482Z,75.81
2023-10-26T07:11:08.852Z,75.99
2023-10-26T07:13:35.547Z,76.13
2023-10-26T07:16:03.296Z,76.30
2023-10-26T07:18:30.900Z,76.16
2023-10-26T07:20:58.712Z,75.77
2023-10-26T07:23:25.448Z,75.03
2023-10-26T07:25:52.108Z,75.85
2023-10-26T07:28:18.854Z,75.86
2023-10-26T07:30:45.962Z,75.51
2023-10-26T07:33:12.714Z,75.90
2023-10-26T07:35:42.249Z,75.92
2023-10-26T07:38:35.620Z,75.29
2023-10-26T07:40:58.322Z,74.95
2023-10-26T07:43:25.007Z,74.73
2023-10-26T07:45:52.544Z,75.47
2023-10-26T07:48:19.707Z,74.94
2023-10-26T07:50:46.589Z,75.26
2023-10-26T07:53:15.297Z,74.49
2023-10-26T07:55:42.232Z,75.47
2023-10-26T07:58:08.936Z,75.34
2023-10-26T08:00:39.385Z,75.31
2023-10-26T08:03:06.463Z,75.30
2023-10-26T08:05:33.240Z,74.16
2023-10-26T08:08:00.070Z,74.11
2023-10-26T08:10:27.338Z,74.96
2023-10-26T08:12:54.533Z,74.87
2023-10-26T08:16:31.965Z,74.01
2023-10-26T08:18:08.712Z,73.60
2023-10-26T08:20:35.684Z,74.08
2023-10-26T08:23:05.711Z,73.48
2023-10-26T08:25:38.753Z,73.60
2023-10-26T08:28:05.522Z,74.65
2023-10-26T08:30:32.297Z,73.75
2023-10-26T08:33:01.201Z,74.32
2023-10-26T08:35:28.059Z,73.92
2023-10-26T08:37:54.834Z,74.00
2023-10-26T08:40:22.017Z,73.88
2023-10-26T08:42:49.024Z,73.94
2023-10-26T08:45:27.675Z,74.58
2023-10-26T08:47:57.864Z,74.13
2023-10-26T08:50:25.663Z,74.22
2023-10-26T08:52:55.275Z,74.40
2023-10-26T08:55:22.106Z,75.12
2023-10-26T08:57:51.891Z,75.17
2023-10-26T09:00:19.580Z,74.10
2023-10-26T09:02:49.185Z,74.37
2023-10-26T09:05:16.454Z,74.97
2023-10-26T09:07:43.414Z,75.18
2023-10-26T09:10:11.191Z,74.32
2023-10-26T09:12:38.257Z,74.37
2023-10-26T09:15:09.848Z,74.75
2023-10-26T09:17:37.199Z,74.75
2023-10-26T09:20:18.706Z,74.46
2023-10-26T09:22:45.423Z,75.34
2023-10-26T09:25:14.140Z,74.96
2023-10-26T09:27:41.887Z,74.47
2023-10-26T09:30:29.736Z,74.64
2023-10-26T09:33:00.322Z,74.93
2023-10-26T09:35:28.007Z,74.73
2023-10-26T09:37:54.986Z,74.87
2023-10-26T09:40:25.678Z,73.81
2023-10-26T09:42:52.979Z,74.27
2023-10-26T09:45:21.191Z,73.95
2023-10-26T09:47:48.225Z,74.21
2023-10-26T09:50:15.652Z,73.93
2023-10-26T09:52:43.726Z,73.48
2023-10-26T09:55:12.524Z,73.69
2023-10-26T09:57:52.364Z,73.82
2023-10-26T10:00:19.272Z,73.90
2023-10-26T10:03:06.413Z,73.41
2023-10-26T10:05:38.529Z,73.96
2023-10-26T10:08:06.039Z,73.57
2023-10-26T10:10:34.121Z,73.93
2023-10-26T10:13:01.479Z,73.53
2023-10-26T10:15:44.380Z,74.46
2023-10-26T10:18:11.526Z,73.09
2023-10-26T10:20:41.705Z,72.69
2023-10-26T10:23:09.419Z,73.46
2023-10-26T10:25:51.396Z,72.51
2023-10-26T10:28:19.533Z,72.91
2023-10-26T10:31:00.406Z,72.71
2023-10-26T10:33:29.010Z,72.39
2023-10-26T10:36:05.798Z,72.36
2023-10-26T10:38:33.648Z,72.32
2023-10-26T10:41:00.385Z,71.96
2023-10-26T10:43:46.603Z,71.36
2023-10-26T10:46:23.146Z,71.72
2023-10-26T10:48:57.857Z,70.62
2023-10-26T10:51:30.910Z,70.62
2023-10-26T10:54:01.050Z,71.55
2023-10-26T10:56:39.846Z,70.86
2023-10-26T10:59:42.130Z,71.58
2023-10-26T11:02:14.025Z,71.37
2023-10-26T11:05:09.223Z,71.75
2023-10-26T11:07:39.975Z,72.38
2023-10-26T11:10:07.372Z,71.64
2023-10-26T11:12:34.317Z,71.39
2023-10-26T11:15:01.508Z,71.48
2023-10-26T11:17:30.553Z,70.97
2023-10-26T11:19:57.364Z,72.13
2023-10-26T11:22:24.443Z,71.24
2023-10-26T11:24:51.547Z,71.86
2023-10-26T11:27:20.302Z,70.68
2023-10-26T11:30:01.211Z,71.90
2023-10-26T11:32:30.442Z,70.85
2023-10-26T11:35:10.000Z,70.89
2023-10-26T11:37:42.904Z,71.44
2023-10-26T11:40:11.483Z,71.42
2023-10-26T11:42:53.325Z,70.72
2023-10-26T11:45:22.434Z,71.27
2023-10-26T11:47:53.598Z,71.75
2023-10-26T11:50:22.276Z,71.55
2023-10-26T11:52:49.592Z,70.90
2023-10-26T11:55:16.953Z,71.65
2023-10-26T11:57:43.721Z,70.67
2023-10-26T12:00:11.188Z,71.71
2023-10-26T12:02:37.906Z,70.76
2023-10-26T12:05:05.020Z,71.33
2023-10-26T12:07:32.562Z,70.98
2023-10-26T12:09:59.238Z,70.94
2023-10-26T12:12:26.752Z,71.97
2023-10-26T12:14:53.504Z,71.22
2023-10-26T12:17:20.160Z,71.81
2023-10-26T12:19:46.804Z,72.20
2023-10-26T12:22:13.551Z,72.30
2023-10-26T12:24:40.416Z,72.43
2023-10-26T12:27:07.038Z,71.40
2023-10-26T12:29:33.703Z,71.93
2023-10-26T12:32:00.446Z,71.45
2023-10-26T12:34:27.097Z,71.82
2023-10-26T12:36:53.737Z,71.49
2023-10-26T12:39:20.376Z,71.41
2023-10-26T12:41:47.004Z,71.45
2023-10-26T12:44:13.787Z,71.88
2023-10-26T12:46:40.543Z,71.92
2023-10-26T12:49:07.149Z,71.91
2023-10-26T12:51:34.567Z,71.52
2023-10-26T12:54:09.111Z,71.76
2023-10-26T12:56:37.967Z,71.74
2023-10-26T12:59:04.753Z,71.93
2023-10-26T13:01:31.564Z,71.56
2023-10-26T13:03:59.474Z,72.20
2023-10-26T13:06:26.383Z,71.87
2023-10-26T13:08:53.056Z,71.82
2023-10-26T13:11:19.824Z,72.34
2023-10-26T13:13:46.598Z,72.44
2023-10-26T13:16:13.327Z,72.71
2023-10-26T13:18:41.410Z,72.30
2023-10-26T13:21:10.239Z,72.01
2023-10-26T13:23:36.998Z,72.74
2023-10-26T13:26:03.663Z,72.72
2023-10-26T13:28:30.966Z,72.06
2023-10-26T13:30:57.706Z,72.19
2023-10-26T13:33:24.438Z,71.43
2023-10-26T13:35:51.113Z,72.12
2023-10-26T13:38:17.778Z,71.12
2023-10-26T13:40:45.177Z,72.02
2023-10-26T13:43:12.557Z,71.26
2023-10-26T13:45:39.555Z,70.35
2023-10-26T13:48:09.650Z,69.89
2023-10-26T13:50:39.176Z,69.68
2023-10-26T13:53:05.860Z,70.76
2023-10-26T13:55:39.525Z,70.46
2023-10-26T13:58:09.377Z,70.39
2023-10-26T14:00:36.571Z,70.22
2023-10-26T14:03:04.787Z,69.56
2023-10-26T14:05:32.290Z,69.59
2023-10-26T14:07:59.653Z,69.67
2023-10-26T14:10:26.651Z,70.20
2023-10-26T14:12:53.709Z,70.51
2023-10-26T14:15:20.522Z,70.59
2023-10-26T14:17:47.529Z,70.01
2023-10-26T14:20:14.365Z,69.33
2023-10-26T14:22:41.803Z,70.30
2023-10-26T14:25:08.972Z,70.75
2023-10-26T14:27:35.882Z,69.88
2023-10-26T14:30:02.687Z,69.34
2023-10-26T14:32:29.594Z,70.61
2023-10-26T14:34:56.282Z,70.49
2023-10-26T14:37:23.104Z,70.42
2023-10-26T14:39:49.841Z,69.67
2023-10-26T14:42:16.745Z,70.61
2023-10-26T14:44:43.706Z,69.82
2023-10-26T14:47:10.719Z,70.23
2023-10-26T14:49:37.691Z,70.21
2023-10-26T14:52:05.186Z,69.12
2023-10-26T14:54:33.144Z,70.41
2023-10-26T14:56:59.795Z,69.51
2023-10-26T14:59:28.636Z,70.03
2023-10-26T15:01:58.553Z,69.58
2023-10-26T15:04:25.410Z,69.97
2023-10-26T15:06:53.316Z,69.60
2023-10-26T15:09:28.977Z,70.12
2023-10-26T15:12:07.208Z,69.45
2023-10-26T15:14:34.168Z,70.02
2023-10-26T15:17:01.248Z,69.31
2023-10-26T15:19:27.962Z,70.61
2023-10-26T15:21:56.087Z,69.91
2023-10-26T15:24:23.756Z,70.46
2023-10-26T15:26:50.827Z,69.84
2023-10-26T15:29:17.649Z,69.96
2023-10-26T15:31:48.553Z,70.54
2023-10-26T15:34:16.659Z,70.53
2023-10-26T15:36:44.093Z,70.42
2023-10-26T15:39:11.333Z,70.49
2023-10-26T15:41:43.902Z,70.73
2023-10-26T15:44:10.854Z,71.27
2023-10-26T15:46:38.133Z,70.67
2023-10-26T15:49:33.825Z,71.28
2023-10-26T15:51:54.518Z,70.03
2023-10-26T15:54:21.789Z,70.47
2023-10-26T15:56:48.587Z,71.23
2023-10-26T15:59:16.704Z,71.22
2023-10-26T16:01:44.063Z,71.12
2023-10-26T16:04:11.361Z,70.90
2023-10-26T16:06:38.194Z,70.62
2023-10-26T16:09:05.268Z,72.01
2023-10-26T16:11:31.971Z,71.90
2023-10-26T16:13:58.623Z,71.42
2023-10-26T16:16:25.448Z,72.01
2023-10-26T16:18:52.262Z,72.07
2023-10-26T16:21:18.959Z,71.53
2023-10-26T16:23:45.686Z,72.21
2023-10-26T16:26:12.674Z,72.76
2023-10-26T16:28:39.497Z,72.49
2023-10-26T16:31:06.306Z,72.25
2023-10-26T16:33:33.023Z,73.10
2023-10-26T16:36:00.741Z,72.70
2023-10-26T16:38:27.544Z,73.24
2023-10-26T16:40:54.785Z,72.78
2023-10-26T16:43:22.410Z,72.80
2023-10-26T16:45:49.231Z,73.95
2023-10-26T16:48:17.324Z,73.05
2023-10-26T16:50:45.115Z,74.24
2023-10-26T16:53:27.267Z,73.38
2023-10-26T16:55:59.172Z,73.64
2023-10-26T16:58:25.926Z,73.89
2023-10-26T17:00:52.676Z,74.28
2023-10-26T17:03:19.532Z,74.10
2023-10-26T17:05:46.217Z,74.56
2023-10-26T17:08:13.201Z,73.66
2023-10-26T17:10:41.623Z,73.76
2023-10-26T17:13:10.432Z,74.14
2023-10-26T17:15:37.194Z,74.02
2023-10-26T17:18:04.102Z,74.65
2023-10-26T17:20:30.811Z,74.27
2023-10-26T17:22:57.492Z,74.51
2023-10-26T17:25:24.109Z,74.25
2023-10-26T17:27:51.996Z,74.19
2023-10-26T17:30:20.118Z,74.14
2023-10-26T17:32:48.244Z,74.69
2023-10-26T17:35:14.991Z,74.50
2023-10-26T17:37:41.590Z,74.37
2023-10-26T17:40:08.651Z,74.46
2023-10-26T17:42:36.174Z,74.28
2023-10-26T17:45:03.045Z,74.14
2023-10-26T17:47:29.881Z,74.75
2023-10-26T17:49:57.273Z,74.87
2023-10-26T17:52:24.268Z,74.52
2023-10-26T17:54:50.995Z,74.39
2023-10-26T17:57:17.813Z,74.57
2023-10-26T17:59:44.755Z,75.28
2023-10-26T18:02:11.689Z,74.74
2023-10-26T18:04:38.455Z,74.85
2023-10-26T18:07:05.168Z,74.67
2023-10-26T18:09:31.951Z,75.03
2023-10-26T18:11:58.630Z,74.71
2023-10-26T18:14:26.459Z,74.65
2023-10-26T18:16:55.878Z,74.64
2023-10-26T18:19:22.829Z,75.24
2023-10-26T18:21:49.582Z,74.87
2023-10-26T18:24:16.612Z,74.83
2023-10-26T18:26:43.621Z,74.92
2023-10-26T18:29:10.255Z,74.94
2023-10-26T18:31:36.985Z,75.13
2023-10-26T18:34:04.613Z,74.84
2023-10-26T18:36:33.106Z,75.29
2023-10-26T18:38:59.959Z,75.10
2023-10-26T18:41:26.960Z,75.07
2023-10-26T18:43:54.479Z,75.04
2023-10-26T18:46:21.333Z,75.54
2023-10-26T18:48:48.278Z,75.23
2023-10-26T18:51:15.027Z,75.44
2023-10-26T18:53:42.713Z,75.59
2023-10-26T18:56:16.655Z,75.46
2023-10-26T18:58:43.671Z,75.25
2023-10-26T19:01:10.511Z,75.89
2023-10-26T19:03:46.093Z,75.80
2023-10-26T19:06:23.963Z,75.68
2023-10-26T19:08:50.672Z,75.44
2023-10-26T19:11:17.718Z,75.41
2023-10-26T19:13:44.790Z,75.43
2023-10-26T19:16:11.861Z,75.31
2023-10-26T19:18:38.822Z,75.96
2023-10-26T19:21:06.285Z,75.50
2023-10-26T19:23:33.157Z,76.07
2023-10-26T19:25:59.861Z,76.25
2023-10-26T19:28:26.653Z,75.56
2023-10-26T19:30:56.368Z,75.88
2023-10-26T19:33:24.280Z,75.70
2023-10-26T19:35:51.195Z,75.85
2023-10-26T19:38:18.301Z,75.88
2023-10-26T19:40:45.295Z,75.97
2023-10-26T19:43:12.208Z,75.72
2023-10-26T19:45:41.459Z,75.41
2023-10-26T19:48:09.156Z,75.63
2023-10-26T19:50:35.936Z,75.80
2023-10-26T19:53:02.641Z,75.50
2023-10-26T19:55:29.389Z,75.95
2023-10-26T19:57:58.562Z,75.66
2023-10-26T20:00:27.319Z,75.68
2023-10-26T20:02:54.175Z,75.68
2023-10-26T20:05:21.168Z,75.69
2023-10-26T20:07:48.077Z,75.88
2023-10-26T20:10:14.927Z,75.96
2023-10-26T20:12:41.718Z,75.33
2023-10-26T20:15:10.404Z,76.14
2023-10-26T20:17:37.173Z,75.88
2023-10-26T20:20:07.898Z,75.97
2023-10-26T20:22:35.192Z,76.31
2023-10-26T20:25:02.295Z,76.31
2023-10-26T20:27:29.108Z,75.96
2023-10-26T20:29:56.044Z,75.92
2023-10-26T20:32:22.733Z,75.85
2023-10-26T20:34:49.542Z,75.49
2023-10-26T20:37:16.542Z,75.67
2023-10-26T20:39:44.853Z,75.35
2023-10-26T20:42:11.927Z,74.93
2023-10-26T20:44:38.639Z,74.70
2023-10-26T20:47:06.560Z,74.46
2023-10-26T20:49:33.371Z,74.58
2023-10-26T20:52:00.043Z,73.97
2023-10-26T20:54:26.685Z,74.21
2023-10-26T20:56:53.416Z,74.41
2023-10-26T20:59:20.131Z,74.28
2023-10-26T21:01:46.855Z,73.97
2023-10-26T21:04:13.777Z,74.10
2023-10-26T21:06:40.589Z,74.03
2023-10-26T21:09:07.388Z,73.82
2023-10-26T21:11:34.070Z,73.84
2023-10-26T21:14:00.812Z,73.34
2023-10-26T21:16:27.911Z,73.13
2023-10-26T21:18:54.765Z,72.90
2023-10-26T21:21:21.417Z,72.36
2023-10-26T21:23:48.133Z,72.26
2023-10-26T21:26:14.925Z,72.19
2023-10-26T21:28:42.930Z,72.18
2023-10-26T21:31:10.237Z,72.20
2023-10-26T21:33:37.198Z,72.07
2023-10-26T21:36:10.104Z,71.66
2023-10-26T21:38:36.819Z,71.71
2023-10-26T21:41:05.845Z,71.31
2023-10-26T21:43:33.762Z,71.89
2023-10-26T21:46:07.860Z,72.32
2023-10-26T21:48:37.832Z,71.90
2023-10-26T21:51:08.458Z,72.26
2023-10-26T21:53:35.325Z,72.53
2023-10-26T21:56:02.221Z,72.76
2023-10-26T21:58:29.103Z,72.89
2023-10-26T22:00:55.979Z,73.37
2023-10-26T22:03:22.978Z,73.05
2023-10-26T22:05:49.864Z,73.55
2023-10-26T22:08:17.063Z,73.14
2023-10-26T22:10:43.789Z,72.92
2023-10-26T22:13:10.603Z,73.74
2023-10-26T22:15:37.485Z,72.98
2023-10-26T22:18:04.371Z,73.45
2023-10-26T22:20:31.408Z,73.66
2023-10-26T22:22:58.049Z,72.87
2023-10-26T22:25:25.042Z,72.83
2023-10-26T22:27:51.759Z,73.21
2023-10-26T22:30:18.760Z,72.92
2023-10-26T22:32:45.544Z,72.64
2023-10-26T22:35:12.592Z,73.14
2023-10-26T22:37:39.412Z,73.78
2023-10-26T22:40:08.049Z,72.85
2023-10-26T22:42:35.066Z,72.68
2023-10-26T22:45:01.739Z,73.40
2023-10-26T22:47:28.555Z,72.96
2023-10-26T22:49:56.026Z,73.04
2023-10-26T22:52:22.815Z,72.21
2023-10-26T22:54:49.507Z,72.48
2023-10-26T22:57:16.181Z,72.89
2023-10-26T22:59:46.469Z,72.48
2023-10-26T23:02:13.365Z,72.55
2023-10-26T23:04:40.053Z,72.97
2023-10-26T23:07:06.889Z,72.95
2023-10-26T23:09:33.615Z,72.98
2023-10-26T23:12:00.500Z,72.44
2023-10-26T23:14:27.972Z,72.12
2023-10-26T23:16:54.748Z,72.68
2023-10-26T23:19:21.468Z,72.46
2023-10-26T23:21:48.746Z,72.76
2023-10-26T23:24:15.517Z,72.23
2023-10-26T23:26:42.204Z,72.34
2023-10-26T23:29:08.864Z,72.59
2023-10-26T23:31:35.814Z,72.19
2023-10-26T23:34:02.537Z,73.06
2023-10-26T23:36:29.289Z,72.22
2023-10-26T23:38:56.266Z,72.16
2023-10-26T23:41:22.847Z,72.77
2023-10-26T23:43:49.529Z,72.39
2023-10-26T23:46:16.180Z,72.26
2023-10-26T23:48:42.900Z,72.62
2023-10-26T23:51:09.607Z,72.98
2023-10-26T23:53:36.238Z,72.45
2023-10-26T23:56:03.418Z,72.18
2023-10-26T23:58:30.136Z,72.20
